Time;durP1;ratioP1;P1;durP2;ratioP2;P2;SDS_P1;SDS_P2;PMS_P1;PMS_P2;Temp;Humidity;BMP_temperature;BMP_pressure;BME280_temperature;BME280_humidity;BME280_pressure;Samples;Min_cycle;Max_cycle;Signal;HPM_P1;HPM_P2
2022/07/02 00:02:24;;;;;;;17.58;11.52;;;;;;;13.08;89.85;102090.66;5065369;28;20028;-77
2022/07/02 00:05:01;;;;;;;17.67;11.57;;;;;;;12.98;90.17;102094.72;5065736;28;20180;-78
2022/07/02 00:07:27;;;;;;;21.45;11.60;;;;;;;12.90;90.27;102097.69;5064970;28;20274;-78
2022/07/02 00:09:55;;;;;;;15.82;11.07;;;;;;;12.85;89.95;102096.66;5064262;28;20036;-78
2022/07/02 00:12:20;;;;;;;19.08;11.45;;;;;;;12.84;90.23;102093.06;5063850;28;20027;-77
2022/07/02 00:14:51;;;;;;;18.98;11.32;;;;;;;12.79;89.88;102097.53;5065367;28;20025;-79
2022/07/02 00:17:17;;;;;;;17.25;11.50;;;;;;;12.76;90.09;102097.94;5064656;28;20035;-78
2022/07/02 00:19:43;;;;;;;16.73;11.55;;;;;;;12.80;90.51;102097.28;5056862;28;20025;-77
2022/07/02 00:22:10;;;;;;;16.17;11.68;;;;;;;12.79;90.02;102089.25;5045105;28;20545;-78
2022/07/02 00:24:39;;;;;;;15.82;12.15;;;;;;;12.76;91.18;102101.53;5044438;28;20124;-78
2022/07/02 00:27:08;;;;;;;20.13;11.15;;;;;;;12.81;91.98;102095.38;5045300;28;20049;-78
2022/07/02 00:29:42;;;;;;;17.60;11.82;;;;;;;12.73;91.36;102101.97;5052930;28;20020;-78
2022/07/02 00:32:08;;;;;;;16.42;11.07;;;;;;;12.70;91.76;102096.88;5066692;28;20052;-77
2022/07/02 00:34:36;;;;;;;18.20;11.57;;;;;;;12.67;91.84;102098.19;5085853;28;20380;-79
2022/07/02 00:37:02;;;;;;;;;;;;;;;12.78;89.98;102096.69;5085704;28;20519;-78
2022/07/02 00:39:27;;;;;;;19.05;12.45;;;;;;;12.56;91.34;102095.19;5076781;28;19912;-78
2022/07/02 00:41:54;;;;;;;18.45;11.35;;;;;;;12.45;91.74;102097.53;5063060;28;20050;-79
2022/07/02 00:44:22;;;;;;;17.10;11.65;;;;;;;12.39;91.25;102095.66;5068156;28;20024;-77
2022/07/02 00:46:48;;;;;;;18.45;12.25;;;;;;;12.38;91.44;102098.63;5076964;28;20036;-78
2022/07/02 00:49:13;;;;;;;18.17;11.63;;;;;;;12.35;91.46;102091.63;5070500;28;20430;-78
2022/07/02 00:51:39;;;;;;;20.40;12.38;;;;;;;12.36;91.95;102090.53;5065479;28;20037;-77
2022/07/02 00:54:04;;;;;;;17.25;12.93;;;;;;;12.33;92.03;102091.00;5063412;28;20153;-78
2022/07/02 00:56:30;;;;;;;19.17;12.30;;;;;;;12.38;91.93;102082.94;5065883;28;20023;-78
2022/07/02 00:58:55;;;;;;;21.38;12.50;;;;;;;12.30;92.12;102080.38;5083607;28;20035;-78
2022/07/02 01:01:20;;;;;;;19.45;12.45;;;;;;;12.25;91.89;102082.94;5072774;28;20059;-76
2022/07/02 01:03:48;;;;;;;22.60;12.77;;;;;;;12.25;92.71;102082.06;5077163;28;20028;-78
2022/07/02 01:06:15;;;;;;;17.67;13.90;;;;;;;12.18;92.39;102088.44;5066670;28;20016;-78
2022/07/02 01:11:31;;;;;;;26.85;13.77;;;;;;;12.16;93.12;102073.16;5069223;28;20075;-78
2022/07/02 01:13:57;;;;;;;20.50;12.93;;;;;;;12.23;93.36;102075.94;5040383;22;20149;-77
2022/07/02 01:16:23;;;;;;;19.15;13.15;;;;;;;12.17;93.12;102072.13;5022135;28;20033;-78
2022/07/02 01:18:48;;;;;;;24.30;14.13;;;;;;;12.24;93.34;102074.88;5028010;28;20056;-78
2022/07/02 01:21:14;;;;;;;23.42;13.40;;;;;;;12.19;93.04;102076.34;5027283;28;20433;-67
2022/07/02 01:23:39;;;;;;;19.67;13.43;;;;;;;12.16;93.16;102078.69;5028145;28;20037;-77
2022/07/02 01:26:05;;;;;;;20.77;13.38;;;;;;;12.09;92.78;102075.09;5027134;28;20396;-78
2022/07/02 01:28:30;;;;;;;20.05;13.63;;;;;;;12.05;92.82;102074.66;5026720;28;20029;-79
2022/07/02 01:30:56;;;;;;;23.45;14.60;;;;;;;12.09;93.66;102084.19;5027457;28;20026;-79
2022/07/02 01:33:21;;;;;;;21.23;13.10;;;;;;;12.10;92.99;102082.28;5026603;28;20112;-79
2022/07/02 01:35:47;;;;;;;18.55;13.27;;;;;;;12.15;93.06;102085.25;5028422;28;20039;-78
2022/07/02 01:38:12;;;;;;;19.70;13.63;;;;;;;12.22;93.27;102080.59;5026920;28;20077;-79
2022/07/02 01:40:37;;;;;;;23.98;13.07;;;;;;;12.20;92.58;102079.97;5025894;28;20026;-79
2022/07/02 01:43:03;;;;;;;19.90;13.20;;;;;;;12.27;93.48;102080.81;5027204;28;20038;-79
2022/07/02 01:45:28;;;;;;;19.60;13.82;;;;;;;12.27;93.42;102086.34;5027850;28;20084;-78
2022/07/02 01:47:53;;;;;;;22.20;13.45;;;;;;;12.33;94.01;102085.47;5027536;28;20037;-79
2022/07/02 01:50:19;;;;;;;21.00;13.27;;;;;;;12.34;93.67;102089.06;5026714;28;20029;-79
2022/07/02 01:52:44;;;;;;;17.50;12.45;;;;;;;12.40;93.36;102083.56;5026879;28;20083;-72
2022/07/02 01:55:09;;;;;;;21.23;13.15;;;;;;;12.44;92.64;102081.22;5026500;28;20026;-79
2022/07/02 01:57:38;;;;;;;19.77;13.10;;;;;;;12.41;91.47;102078.88;5027757;28;20088;-79
2022/07/02 02:00:09;;;;;;;19.20;12.65;;;;;;;12.36;91.85;102082.28;5025721;28;20033;-80
2022/07/02 02:02:34;;;;;;;20.23;12.30;;;;;;;12.34;91.83;102080.81;5027927;28;20057;-79
2022/07/02 02:05:00;;;;;;;16.60;12.27;;;;;;;12.33;92.81;102079.97;5027159;28;20045;-79
2022/07/02 02:07:26;;;;;;;15.80;12.18;;;;;;;12.31;92.60;102083.97;5024227;28;20033;-80
2022/07/02 02:09:51;;;;;;;20.17;12.35;;;;;;;12.29;92.81;102072.34;5023350;28;20029;-72
2022/07/02 02:12:17;;;;;;;19.08;12.65;;;;;;;12.28;92.22;102074.25;5028109;28;20080;-80
2022/07/02 02:14:42;;;;;;;20.17;12.65;;;;;;;12.27;92.73;102075.31;5026110;28;20573;-80
2022/07/02 02:17:07;;;;;;;17.48;12.57;;;;;;;12.26;92.36;102070.84;5027320;28;20021;-80
2022/07/02 02:19:32;;;;;;;17.92;12.05;;;;;;;12.28;92.57;102067.91;5024326;28;20497;-79
2022/07/02 02:21:58;;;;;;;20.17;13.10;;;;;;;12.31;93.31;102068.28;5021521;28;20030;-79
2022/07/02 02:24:23;;;;;;;21.75;12.10;;;;;;;12.33;92.35;102074.47;5021364;28;20029;-77
2022/07/02 02:26:49;;;;;;;17.85;12.52;;;;;;;12.29;91.99;102069.59;5026522;28;20056;-80
2022/07/02 02:29:14;;;;;;;18.70;12.60;;;;;;;12.30;92.62;102068.50;5024742;28;20405;-75
2022/07/02 02:31:39;;;;;;;19.45;12.30;;;;;;;12.27;91.95;102072.56;5026405;28;20095;-79
2022/07/02 02:34:05;;;;;;;18.98;13.15;;;;;;;12.29;92.95;102073.19;5026427;28;20021;-79
2022/07/02 02:36:30;;;;;;;19.55;12.95;;;;;;;12.22;92.56;102080.59;5027333;28;20045;-80
2022/07/02 02:38:55;;;;;;;18.98;13.45;;;;;;;12.20;92.81;102078.03;5025587;28;20029;-80
2022/07/02 02:41:21;;;;;;;19.70;14.25;;;;;;;12.27;93.08;102074.47;5027504;28;20029;-80
2022/07/02 02:43:46;;;;;;;18.10;13.55;;;;;;;12.32;92.98;102072.78;5025347;28;20068;-81
2022/07/02 02:46:11;;;;;;;23.05;14.38;;;;;;;12.35;92.33;102071.47;5026901;28;20029;-79
2022/07/02 02:48:38;;;;;;;22.08;13.82;;;;;;;12.41;92.51;102081.66;5026949;28;20428;-79
2022/07/02 02:51:04;;;;;;;20.38;14.00;;;;;;;12.51;92.63;102075.69;5026496;28;20025;-79
2022/07/02 02:53:31;;;;;;;21.90;14.50;;;;;;;12.50;92.19;102074.88;5026846;28;20113;-78
2022/07/02 02:56:00;;;;;;;21.35;15.15;;;;;;;12.51;92.05;102082.06;5023065;28;20064;-79
2022/07/02 02:58:26;;;;;;;21.92;14.75;;;;;;;12.56;92.51;102084.19;5025322;28;20064;-79
2022/07/02 03:00:52;;;;;;;28.05;15.00;;;;;;;12.55;90.36;102086.09;5025070;28;20072;-70
2022/07/02 03:03:17;;;;;;;19.05;14.68;;;;;;;12.59;91.07;102094.78;5026458;28;20091;-80
2022/07/02 03:05:42;;;;;;;24.38;15.93;;;;;;;12.62;92.07;102088.84;5025379;28;20027;-79
2022/07/02 03:08:07;;;;;;;21.88;15.60;;;;;;;12.61;92.79;102087.13;5027109;28;20385;-79
2022/07/02 03:10:33;;;;;;;21.58;16.00;;;;;;;12.53;92.19;102090.97;5025413;28;20630;-79
2022/07/02 03:12:58;;;;;;;23.25;15.60;;;;;;;12.48;91.66;102087.16;5022688;28;20456;-79
2022/07/02 03:15:24;;;;;;;22.15;15.40;;;;;;;12.44;92.08;102092.25;5025891;28;20026;-79
2022/07/02 03:17:49;;;;;;;26.55;16.50;;;;;;;12.36;92.21;102089.69;5025748;28;20050;-78
2022/07/02 03:20:14;;;;;;;24.67;17.00;;;;;;;12.30;92.22;102085.88;5026027;28;20163;-80
2022/07/02 03:22:40;;;;;;;28.92;18.08;;;;;;;12.25;92.45;102087.59;5027010;28;20048;-79
2022/07/02 03:25:06;;;;;;;27.30;18.83;;;;;;;12.22;92.16;102094.38;5024196;28;20059;-79
2022/07/02 03:27:31;;;;;;;25.10;18.83;;;;;;;12.17;92.62;102105.19;5025547;28;20504;-79
2022/07/02 03:29:57;;;;;;;28.25;18.75;;;;;;;12.12;92.68;102114.06;5023662;28;20045;-80
2022/07/02 03:32:25;;;;;;;23.55;17.30;;;;;;;12.12;93.04;102104.97;5025665;28;20041;-79
2022/07/02 03:34:53;;;;;;;25.05;17.27;;;;;;;12.15;92.93;102110.88;5024171;28;20037;-76
2022/07/02 03:37:21;;;;;;;30.38;17.92;;;;;;;12.21;93.15;102109.19;5025609;28;20072;-80
2022/07/02 03:39:47;;;;;;;33.47;19.20;;;;;;;12.20;92.35;102119.34;5020533;28;20469;-80
2022/07/02 03:42:12;;;;;;;22.13;16.67;;;;;;;12.25;93.01;102118.72;5026376;28;20064;-80
2022/07/02 03:44:37;;;;;;;28.77;18.45;;;;;;;12.33;93.07;102112.19;5019629;28;20021;-80
2022/07/02 03:47:03;;;;;;;30.35;18.02;;;;;;;12.39;92.98;102114.09;5024714;28;20041;-80
2022/07/02 03:49:28;;;;;;;29.85;18.88;;;;;;;12.43;92.75;102115.38;5024757;28;20441;-80
2022/07/02 03:51:53;;;;;;;30.17;19.48;;;;;;;12.49;92.96;102105.41;5024693;28;20056;-80
2022/07/02 03:54:18;;;;;;;31.23;19.15;;;;;;;12.57;92.77;102108.78;5023758;28;21812;-79
2022/07/02 03:56:44;;;;;;;26.27;19.23;;;;;;;12.55;91.55;102110.03;5023666;28;20025;-77
2022/07/02 03:59:09;;;;;;;26.45;19.05;;;;;;;12.57;92.22;102114.31;5026153;28;20021;-78
2022/07/02 04:01:34;;;;;;;25.25;18.98;;;;;;;12.56;91.60;102108.97;5024752;28;20033;-79
2022/07/02 04:04:00;;;;;;;30.35;19.23;;;;;;;12.56;91.79;102114.50;5025425;28;20065;-79
2022/07/02 04:06:25;;;;;;;26.73;18.02;;;;;;;12.53;91.10;102112.19;5023102;28;20509;-79
2022/07/02 04:08:50;;;;;;;29.27;18.75;;;;;;;12.51;91.22;102117.88;5023147;28;20125;-79
2022/07/02 04:11:15;;;;;;;27.60;17.80;;;;;;;12.55;91.30;102115.56;5024860;28;20022;-80
2022/07/02 04:13:41;;;;;;;28.77;18.63;;;;;;;12.63;92.52;102123.63;5025487;28;20397;-79
2022/07/02 04:16:06;;;;;;;28.65;18.17;;;;;;;12.68;91.82;102121.91;5024831;28;20138;-79
2022/07/02 04:18:31;;;;;;;29.30;19.48;;;;;;;12.74;91.61;102125.72;5025104;28;20029;-79
2022/07/02 04:20:56;;;;;;;27.38;16.88;;;;;;;12.80;91.82;102121.25;5024152;28;20358;-80
2022/07/02 04:23:22;;;;;;;24.83;16.85;;;;;;;12.76;91.02;102122.75;5023971;28;20653;-79
2022/07/02 04:25:47;;;;;;;26.85;16.88;;;;;;;12.72;91.21;102125.06;5023774;28;20040;-80
2022/07/02 04:28:12;;;;;;;24.55;16.23;;;;;;;12.67;90.87;102120.22;5024284;28;20079;-79
2022/07/02 04:30:38;;;;;;;27.27;16.00;;;;;;;12.64;90.68;102120.66;5022556;28;20398;-79
2022/07/02 04:33:03;;;;;;;26.05;15.82;;;;;;;12.63;90.72;102118.97;5023236;28;20747;-79
2022/07/02 04:35:30;;;;;;;24.77;15.88;;;;;;;12.62;90.92;102121.91;5024662;28;20048;-79
2022/07/02 04:37:55;;;;;;;26.30;16.77;;;;;;;12.67;92.46;102124.88;5023703;28;20044;-79
2022/07/02 04:40:20;;;;;;;23.00;15.07;;;;;;;12.72;90.73;102134.22;5021535;28;20033;-78
2022/07/02 04:42:45;;;;;;;22.40;15.32;;;;;;;12.77;91.55;102130.78;5024268;28;20426;-79
2022/07/02 04:45:11;;;;;;;28.23;16.30;;;;;;;12.89;92.58;102123.59;5023412;28;20080;-78
2022/07/02 04:47:36;;;;;;;21.35;14.38;;;;;;;13.03;90.03;102126.28;5024588;28;20545;-79
2022/07/02 04:50:01;;;;;;;20.92;14.13;;;;;;;13.13;91.19;102126.72;5022348;28;20041;-78
2022/07/02 04:52:27;;;;;;;22.20;13.52;;;;;;;13.21;88.66;102127.34;5024578;28;20792;-78
2022/07/02 04:54:52;;;;;;;17.45;12.32;;;;;;;13.33;87.71;102119.25;5023361;28;20128;-78
2022/07/02 04:57:17;;;;;;;24.38;13.70;;;;;;;13.40;88.57;102122.81;5022713;28;20440;-78
2022/07/02 04:59:44;;;;;;;19.70;11.98;;;;;;;13.50;88.89;102122.38;5024465;28;20030;-79
2022/07/02 05:02:12;;;;;;;19.48;11.77;;;;;;;13.58;87.50;102121.25;5023596;28;20025;-78
2022/07/02 05:04:38;;;;;;;;;;;;;;;13.72;87.65;102128.41;5024615;28;20025;-78
2022/07/02 05:07:03;;;;;;;19.80;10.95;;;;;;;13.69;87.14;102121.44;5022944;28;20373;-78
2022/07/02 05:09:28;;;;;;;18.13;10.02;;;;;;;13.73;85.08;102116.28;5022498;28;20453;-77
2022/07/02 05:11:54;;;;;;;17.25;10.10;;;;;;;13.80;81.95;102125.41;5023868;28;20351;-78
2022/07/02 05:14:20;;;;;;;15.30;9.52;;;;;;;13.87;80.83;102131.72;5024714;28;20049;-77
2022/07/02 05:16:45;;;;;;;21.92;10.05;;;;;;;13.95;81.79;102119.59;5022555;28;20342;-78
2022/07/02 05:19:10;;;;;;;19.02;9.82;;;;;;;13.99;80.47;102124.44;5023913;28;20580;-77
2022/07/02 05:21:37;;;;;;;17.35;10.13;;;;;;;14.01;83.54;102133.34;5023441;28;20073;-77
2022/07/02 05:24:03;;;;;;;14.63;10.25;;;;;;;14.08;83.33;102132.44;5023047;28;20504;-77
2022/07/02 05:26:29;;;;;;;16.40;9.70;;;;;;;14.09;82.97;102123.09;5023655;28;20072;-77
2022/07/02 05:28:54;;;;;;;19.83;9.75;;;;;;;14.17;81.01;102128.34;5023969;28;20026;-76
2022/07/02 05:31:19;;;;;;;15.50;9.60;;;;;;;14.21;80.34;102121.31;5022942;28;20160;-77
2022/07/02 05:33:45;;;;;;;18.15;9.40;;;;;;;14.25;79.15;102117.03;5023649;28;20037;-78
2022/07/02 05:36:10;;;;;;;14.50;8.98;;;;;;;14.28;78.93;102122.09;5023362;28;20058;-79
2022/07/02 05:38:35;;;;;;;16.67;9.15;;;;;;;14.34;78.56;102123.13;5024375;28;20027;-77
2022/07/02 05:41:00;;;;;;;17.50;9.38;;;;;;;14.45;77.84;102128.78;5022219;28;20048;-77
2022/07/02 05:43:26;;;;;;;16.33;9.27;;;;;;;14.57;77.96;102125.31;5027710;28;20077;-78
2022/07/02 05:45:51;;;;;;;16.92;8.55;;;;;;;14.64;79.06;102131.63;5026632;28;20370;-64
2022/07/02 05:48:16;;;;;;;20.30;8.30;;;;;;;14.73;77.44;102130.25;5024459;28;20037;-77
2022/07/02 05:50:42;;;;;;;15.45;8.88;;;;;;;14.76;76.72;102135.34;5029008;28;20358;-76
2022/07/02 05:53:07;;;;;;;16.25;8.65;;;;;;;14.84;77.04;102132.28;5028118;28;20049;-77
2022/07/02 05:55:32;;;;;;;17.48;8.23;;;;;;;14.96;76.03;102138.78;5025439;28;20029;-77
2022/07/02 05:57:57;;;;;;;16.35;8.32;;;;;;;15.02;75.95;102137.84;5026560;28;20034;-78
2022/07/02 06:00:23;;;;;;;13.07;7.20;;;;;;;15.11;75.48;102135.63;5024941;28;20040;-78
2022/07/02 06:02:48;;;;;;;16.42;8.13;;;;;;;15.12;76.80;102144.78;5027493;28;20057;-78
2022/07/02 06:07:57;;;;;;;13.30;6.90;;;;;;;15.15;75.36;102145.13;5024915;28;20049;-77
2022/07/02 06:10:24;;;;;;;16.48;6.40;;;;;;;15.20;73.80;102134.22;5025510;28;20139;-77
2022/07/02 06:12:51;;;;;;;15.02;6.10;;;;;;;15.30;73.20;102136.47;5025061;28;20060;-77
2022/07/02 06:15:18;;;;;;;11.98;5.57;;;;;;;15.61;72.33;102127.13;5012792;28;20033;-77
2022/07/02 06:17:44;;;;;;;9.93;5.05;;;;;;;15.73;71.05;102138.31;5027197;28;20041;-77
2022/07/02 06:20:11;;;;;;;12.48;4.88;;;;;;;15.72;70.44;102133.88;5027066;28;20026;-77
2022/07/02 06:22:36;;;;;;;11.82;4.40;;;;;;;15.72;69.00;102134.72;5027174;28;20336;-78
2022/07/02 06:25:02;;;;;;;9.65;4.00;;;;;;;15.74;68.75;102134.47;5024759;28;20037;-77
2022/07/02 06:27:27;;;;;;;12.05;3.72;;;;;;;15.79;68.17;102131.84;5025616;28;20935;-78
2022/07/02 06:29:53;;;;;;;9.38;4.30;;;;;;;15.82;68.10;102136.91;5025355;28;20025;-76
2022/07/02 06:32:19;;;;;;;11.68;4.63;;;;;;;15.88;68.75;102135.13;5026802;28;20018;-77
2022/07/02 06:34:44;;;;;;;10.60;3.83;;;;;;;15.87;70.78;102150.91;5025674;28;20079;-76
2022/07/02 06:37:10;;;;;;;12.23;3.85;;;;;;;15.99;67.37;102146.25;5025935;28;20031;-78
2022/07/02 06:39:36;;;;;;;15.63;3.83;;;;;;;16.11;68.81;102157.38;5024926;28;20040;-77
2022/07/02 06:42:20;;;;;;;10.88;3.85;;;;;;;16.41;65.69;102149.03;5025843;28;20119;-76
2022/07/02 06:44:46;;;;;;;11.40;3.78;;;;;;;16.78;65.20;102146.09;5027274;28;20565;-76
2022/07/02 06:47:12;;;;;;;8.30;3.15;;;;;;;17.00;63.64;102144.41;5025911;28;20058;-76
2022/07/02 06:49:37;;;;;;;8.50;3.22;;;;;;;17.07;63.76;102142.34;5026525;28;20030;-77
2022/07/02 06:52:03;;;;;;;10.05;2.80;;;;;;;17.09;59.29;102145.75;5026238;28;20041;-76
2022/07/02 06:54:28;;;;;;;8.18;3.00;;;;;;;17.10;61.04;102147.41;5026017;28;20049;-76
2022/07/02 06:56:53;;;;;;;10.55;4.30;;;;;;;17.10;62.17;102147.41;5026148;28;20044;-74
2022/07/02 06:59:19;;;;;;;8.40;3.08;;;;;;;17.00;63.34;102140.78;5026301;28;20099;-75
2022/07/02 07:01:44;;;;;;;8.52;2.92;;;;;;;16.88;64.96;102138.03;5026880;28;20030;-76
2022/07/02 07:04:09;;;;;;;13.50;3.20;;;;;;;16.87;65.08;102141.88;5026694;28;20037;-76
2022/07/02 07:06:35;;;;;;;9.50;3.17;;;;;;;16.93;65.18;102152.03;5026671;28;20018;-75
2022/07/02 07:09:01;;;;;;;6.68;2.80;;;;;;;17.05;64.68;102146.47;5025264;28;20653;-75
2022/07/02 07:11:26;;;;;;;6.30;2.50;;;;;;;17.19;61.92;102149.84;5027231;28;20018;-76
2022/07/02 07:13:51;;;;;;;7.03;3.35;;;;;;;17.26;62.25;102150.53;5026609;28;20091;-76
2022/07/02 07:16:17;;;;;;;6.50;2.20;;;;;;;17.12;60.90;102145.22;5026291;28;20053;-76
2022/07/02 07:19:15;;;;;;;6.47;3.05;;;;;;;17.09;62.83;102144.91;5023925;28;20060;-76
2022/07/02 07:21:35;;;;;;;7.50;1.95;;;;;;;17.10;58.23;102139.09;5026269;28;20084;-76
2022/07/02 07:24:00;;;;;;;6.05;2.10;;;;;;;17.16;60.28;102145.59;5025876;28;20056;-75
2022/07/02 07:26:26;;;;;;;5.05;1.90;;;;;;;17.22;60.12;102149.34;5026518;28;20057;-75
2022/07/02 07:28:52;;;;;;;5.00;2.35;;;;;;;17.29;62.30;102155.63;5012150;28;20084;-68
2022/07/02 07:31:20;;;;;;;4.82;2.20;;;;;;;17.37;59.12;102146.88;5006468;28;20101;-76
2022/07/02 07:33:46;;;;;;;7.70;2.17;;;;;;;17.43;58.96;102145.91;5007088;28;20433;-74
2022/07/02 07:36:11;;;;;;;4.43;1.83;;;;;;;17.56;56.54;102145.66;5006967;28;20061;-75
2022/07/02 07:38:37;;;;;;;5.07;2.05;;;;;;;17.67;60.54;102149.47;5019348;28;20463;-75
2022/07/02 07:41:02;;;;;;;3.20;1.77;;;;;;;17.72;57.19;102135.69;5025685;28;20108;-76
2022/07/02 07:43:27;;;;;;;5.13;2.00;;;;;;;17.79;57.61;102149.47;5026429;28;20030;-75
2022/07/02 07:45:52;;;;;;;9.35;2.70;;;;;;;17.86;56.56;102147.41;5025710;28;20025;-74
2022/07/02 07:48:18;;;;;;;6.90;2.00;;;;;;;17.89;57.56;102149.66;5024654;28;20726;-73
2022/07/02 07:50:43;;;;;;;4.68;2.40;;;;;;;17.96;58.40;102155.09;5025888;28;20112;-75
2022/07/02 07:53:08;;;;;;;6.30;1.90;;;;;;;18.04;58.26;102149.94;5025180;28;20022;-75
2022/07/02 07:55:33;;;;;;;5.10;1.67;;;;;;;18.13;57.48;102144.84;5025893;28;20129;-76
2022/07/02 07:57:59;;;;;;;5.88;1.85;;;;;;;18.22;56.29;102154.47;5026170;28;20028;-74
2022/07/02 08:00:24;;;;;;;4.68;1.60;;;;;;;18.32;56.66;102149.09;5025100;28;20033;-74
2022/07/02 08:02:50;;;;;;;7.20;1.85;;;;;;;18.40;54.82;102142.28;5025957;28;20524;-75
2022/07/02 08:05:15;;;;;;;4.65;1.63;;;;;;;18.52;55.73;102137.47;5024921;28;20458;-73
2022/07/02 08:07:41;;;;;;;5.38;1.85;;;;;;;18.59;55.68;102137.31;5026139;28;20045;-74
2022/07/02 08:10:10;;;;;;;3.67;1.20;;;;;;;18.69;53.66;102142.22;5024411;28;20040;-75
2022/07/02 08:12:36;;;;;;;6.00;1.90;;;;;;;18.71;53.40;102140.91;5025835;28;20025;-74
2022/07/02 08:15:01;;;;;;;7.25;1.60;;;;;;;18.76;54.38;102132.63;5025124;28;20029;-75
2022/07/02 08:17:29;;;;;;;5.75;1.60;;;;;;;18.82;56.10;102139.09;5024997;28;20025;-74
2022/07/02 08:19:55;;;;;;;11.63;1.88;;;;;;;18.93;57.54;102132.59;5025302;28;20566;-75
2022/07/02 08:22:20;;;;;;;5.43;1.88;;;;;;;18.99;57.49;102130.72;5024919;28;20075;-75
2022/07/02 08:24:45;;;;;;;5.20;1.80;;;;;;;19.04;54.19;102134.41;5024813;28;20434;-74
2022/07/02 08:27:11;;;;;;;5.38;1.80;;;;;;;19.05;54.07;102126.91;5025544;28;20520;-74
2022/07/02 08:29:36;;;;;;;5.40;2.25;;;;;;;19.05;56.15;102116.63;5025844;28;20501;-75
2022/07/02 08:32:03;;;;;;;5.15;1.63;;;;;;;19.12;55.74;102122.03;5024230;28;20120;-73
2022/07/02 08:34:29;;;;;;;6.10;1.70;;;;;;;19.18;52.90;102124.59;5025560;28;20025;-75
2022/07/02 08:36:54;;;;;;;6.95;1.98;;;;;;;19.28;52.77;102121.13;5024166;28;20038;-74
2022/07/02 08:39:20;;;;;;;6.07;1.70;;;;;;;19.28;51.33;102123.91;5024881;28;20052;-72
2022/07/02 08:41:47;;;;;;;5.45;1.40;;;;;;;19.37;51.83;102115.94;5024765;28;20067;-74
2022/07/02 08:44:14;;;;;;;7.43;1.80;;;;;;;19.48;55.44;102122.50;5024017;28;20021;-74
2022/07/02 08:46:41;;;;;;;4.40;1.33;;;;;;;19.47;51.48;102110.50;5024717;28;20116;-73
2022/07/02 08:49:07;;;;;;;2.77;1.40;;;;;;;19.50;53.85;102118.31;5024485;28;20029;-74
2022/07/02 08:51:33;;;;;;;5.40;1.58;;;;;;;19.64;52.37;102116.88;5024049;28;20029;-72
2022/07/02 08:54:00;;;;;;;4.18;1.65;;;;;;;19.73;50.72;102119.22;5024320;28;20481;-73
2022/07/02 08:56:27;;;;;;;7.72;1.70;;;;;;;19.88;52.31;102116.59;5025523;28;20104;-74
2022/07/02 08:58:53;;;;;;;5.70;1.90;;;;;;;20.00;52.46;102116.41;5024563;28;20029;-73
2022/07/02 09:01:18;;;;;;;4.57;1.42;;;;;;;19.95;50.84;102101.31;5024614;28;20379;-73
2022/07/02 09:03:44;;;;;;;4.65;1.73;;;;;;;20.01;52.67;102106.94;5025585;28;20033;-73
2022/07/02 09:06:10;;;;;;;5.15;1.35;;;;;;;20.08;52.20;102107.59;5024692;28;20109;-72
2022/07/02 09:08:37;;;;;;;6.47;1.67;;;;;;;20.20;50.20;102109.09;5021890;28;20484;-73
2022/07/02 09:11:02;;;;;;;6.90;1.40;;;;;;;20.32;50.27;102099.69;5020762;28;20018;-73
2022/07/02 09:13:29;;;;;;;5.28;1.70;;;;;;;20.35;49.41;102102.81;5023605;28;20520;-73
2022/07/02 09:15:55;;;;;;;6.47;1.70;;;;;;;20.50;52.90;102104.94;5022828;28;20036;-73
2022/07/02 09:18:20;;;;;;;7.65;1.73;;;;;;;20.63;49.91;102098.91;5023914;28;20051;-73
2022/07/02 09:20:45;;;;;;;7.07;1.67;;;;;;;20.55;48.97;102093.81;5012907;28;20052;-73
2022/07/02 09:23:20;;;;;;;5.47;1.70;;;;;;;20.75;49.68;102092.28;5012574;28;20034;-73
2022/07/02 09:25:47;;;;;;;5.50;1.85;;;;;;;20.92;51.59;102085.38;5025304;28;20026;-74
2022/07/02 09:28:14;;;;;;;6.13;1.80;;;;;;;21.01;49.13;102085.72;5019117;28;20083;-73
2022/07/02 09:30:39;;;;;;;4.13;1.77;;;;;;;21.16;49.82;102083.00;5022926;28;20036;-73
2022/07/02 09:33:29;;;;;;;5.55;2.00;;;;;;;21.57;47.74;102087.97;5024501;28;20030;-73
2022/07/02 09:35:55;;;;;;;7.78;2.20;;;;;;;22.53;45.30;102084.47;5026107;28;20360;-71
2022/07/02 09:38:21;;;;;;;5.97;1.58;;;;;;;24.44;41.95;102078.63;5018624;28;20105;-71
2022/07/02 09:40:54;;;;;;;5.33;1.37;;;;;;;26.70;40.14;102084.59;5025522;28;20445;-72
2022/07/02 09:43:30;;;;;;;5.10;1.35;;;;;;;27.15;36.85;102084.91;5026909;28;20280;-72
2022/07/02 09:45:56;;;;;;;6.10;1.67;;;;;;;28.15;32.57;102068.00;5025790;28;20068;-71
2022/07/02 09:48:22;;;;;;;3.90;1.40;;;;;;;29.05;33.17;102059.44;5026424;28;20057;-70
2022/07/02 09:50:47;;;;;;;6.57;1.63;;;;;;;30.10;30.71;102062.09;5024542;28;20080;-71
2022/07/02 09:53:13;;;;;;;4.68;1.40;;;;;;;30.35;30.54;102054.78;5024078;28;20053;-70
2022/07/02 09:55:39;;;;;;;5.57;1.20;;;;;;;30.95;27.74;102067.97;5022339;28;20080;-70
2022/07/02 09:58:05;;;;;;;4.68;1.42;;;;;;;31.79;27.13;102056.81;5008513;28;20365;-70
2022/07/02 10:00:41;;;;;;;5.05;1.52;;;;;;;31.39;28.03;102060.13;5020008;28;20033;-70
2022/07/02 10:03:06;;;;;;;2.83;1.00;;;;;;;31.63;26.88;102058.59;5027632;28;20045;-69
2022/07/02 10:05:33;;;;;;;4.25;1.17;;;;;;;32.22;25.55;102053.63;5025616;28;20034;-69
2022/07/02 10:08:01;;;;;;;5.82;1.30;;;;;;;32.19;25.06;102057.19;5024970;28;20088;-69
2022/07/02 10:10:38;;;;;;;6.28;1.25;;;;;;;30.98;26.81;102063.63;5028411;28;20029;-70
2022/07/02 10:13:03;;;;;;;6.93;2.50;;;;;;;30.26;29.16;102058.78;5024423;28;20077;-71
2022/07/02 10:15:31;;;;;;;3.03;1.02;;;;;;;30.36;28.38;102047.94;5027874;28;20112;-68
2022/07/02 10:17:57;;;;;;;3.47;1.27;;;;;;;31.17;27.38;102041.31;5028042;28;20049;-71
2022/07/02 10:20:23;;;;;;;4.32;1.15;;;;;;;31.79;25.63;102039.78;5028223;28;20962;-71
2022/07/02 10:22:50;;;;;;;4.70;1.35;;;;;;;31.85;28.42;102044.09;5027158;28;20119;-69
2022/07/02 10:25:18;;;;;;;3.95;1.40;;;;;;;32.04;27.88;102037.94;5027232;28;20029;-69
2022/07/02 10:27:45;;;;;;;3.78;1.10;;;;;;;32.44;25.02;102031.66;5028324;28;20112;-69
2022/07/02 10:30:11;;;;;;;8.02;1.90;;;;;;;32.39;24.99;102029.91;5026665;28;20094;-69
2022/07/02 10:32:50;;;;;;;2.28;1.10;;;;;;;32.91;25.85;102022.78;5028138;28;20025;-69
2022/07/02 10:35:16;;;;;;;4.55;1.13;;;;;;;33.08;24.87;102028.22;5026994;28;20043;-68
2022/07/02 10:37:44;;;;;;;6.45;1.50;;;;;;;31.35;26.94;102025.06;5022915;28;20105;-69
2022/07/02 10:40:16;;;;;;;5.60;1.45;;;;;;;29.18;29.02;102027.34;5027823;28;20033;-69
2022/07/02 10:42:50;;;;;;;5.47;1.20;;;;;;;29.41;30.61;102028.91;5024941;28;20022;-69
2022/07/02 10:45:20;;;;;;;4.75;1.00;;;;;;;27.95;29.25;102017.66;5026854;28;20029;-69
2022/07/02 10:48:03;;;;;;;2.47;0.90;;;;;;;26.91;34.88;102025.84;5010572;28;20065;-70
2022/07/02 10:50:34;;;;;;;3.08;1.13;;;;;;;26.83;34.63;102026.59;5007344;28;20122;-68
2022/07/02 10:53:19;;;;;;;4.50;1.30;;;;;;;26.33;33.54;102024.38;5009414;28;20033;-68
2022/07/02 10:55:57;;;;;;;4.70;1.27;;;;;;;25.80;33.35;102027.53;5022390;28;20083;-65
2022/07/02 10:58:31;;;;;;;2.38;0.95;;;;;;;25.43;35.05;102027.47;5007815;28;20030;-69
2022/07/02 11:01:08;;;;;;;5.03;1.20;;;;;;;24.94;36.49;102025.81;5006578;28;20252;-69
2022/07/02 11:03:34;;;;;;;4.60;1.20;;;;;;;24.87;35.92;102014.09;5013373;28;20028;-69
2022/07/02 11:06:03;;;;;;;3.90;1.23;;;;;;;25.25;37.74;102015.91;5024687;28;20116;-68
2022/07/02 11:08:43;;;;;;;4.32;1.10;;;;;;;25.66;36.84;102015.34;5020283;28;20033;-69
2022/07/02 11:11:10;;;;;;;3.38;1.00;;;;;;;25.69;35.52;102009.06;5026190;28;20041;-70
2022/07/02 11:13:43;;;;;;;5.20;1.10;;;;;;;25.71;36.50;102012.44;5023865;28;20137;-72
2022/07/02 11:16:26;;;;;;;4.18;1.00;;;;;;;25.89;37.01;102019.22;5020495;28;20037;-71
2022/07/02 11:18:54;;;;;;;3.05;0.90;;;;;;;25.73;34.94;102012.97;5025706;28;20025;-69
2022/07/02 11:21:21;;;;;;;3.33;0.90;;;;;;;25.58;36.79;102008.41;5024199;28;20385;-70